Whallonsburg, New York
Current Conditions -  °F | °C
As of 8:54 PM on Thursday 20 Nov 2014 (Local Time) from KBTV Reporting Station
Broken Clouds Broken Clouds  
Wind Chill: 22°   Ceiling: 6000
Heat Index: 28°   Visibility: 10mi
Dew Point: 12°   Wind: 6mph
Humidity: 51%   Direction: 210°SSW
Pressure: 29.84"   Gusts: NA
Location:  44.287°N, 73.399°W
Report Text: KBTV 210154Z 21005KT 10SM SCT047 BKN060 M02/M11 A2984 RMK AO2 SLP109 T10221111
Loading
Personal Weather Stations






























Interactive Weather Map New forecast layout! Learn more

10-Day Weather Forecast

Advertisements
Track Severe Weather on mobile